In Rescue
 
Open Full Screen Window  High Contrast Mode
December 15, 2019 6:03 PM EST
Weather Information
Wind Direction
  ---
Wind Speed
  00 kt (0 mph)
Wind Gust
  00 kt (0 mph)
Altimeter
30.14 in
Visibility
10 SM
Temperature
00° C
32° F
Dewpoint
-06° C
21° F
Humidity
64%
1hr Rain Fall
00.00 in.
24hr Rain Fall
00.00 in.
Sky Condition
Broken @ 11,000 ft
VFR

METAR KDLZ 152303Z AUTO 00000KT 10SM BKN110 00/M06 A3014 RMK AO2

FAA Disclaimer: The data displayed is for advisory purposes only and is not to be used for flight planning or operations.